Time;durP1;ratioP1;P1;durP2;ratioP2;P2;SDS_P1;SDS_P2;PMS_P1;PMS_P2;Temp;Humidity;BMP_temperature;BMP_pressure;BME280_temperature;BME280_humidity;BME280_pressure;Samples;Min_cycle;Max_cycle;Signal;HPM_P1;HPM_P2
2021/11/20 00:02:24;;;;;;;2.15;1.38;;;;;;;25.93;35.16;97898.38;5044111;28;20025;-28
2021/11/20 00:04:49;;;;;;;;;;;;;;;25.93;35.06;97901.81;5041430;28;20080;-30
2021/11/20 00:07:15;;;;;;;2.72;1.52;;;;;;;25.93;35.11;97896.56;5041116;28;20807;-27
2021/11/20 00:09:40;;;;;;;1.90;1.10;;;;;;;25.92;35.09;97896.63;5043956;28;20021;-31
2021/11/20 00:12:09;;;;;;;1.48;1.30;;;;;;;25.92;35.18;97901.88;5046375;28;20059;-30
2021/11/20 00:14:35;;;;;;;3.50;1.50;;;;;;;25.91;35.22;97901.03;5044220;28;20485;-29
2021/11/20 00:17:01;;;;;;;2.22;1.48;;;;;;;25.92;35.05;97899.25;5040717;28;20093;-30
2021/11/20 00:19:27;;;;;;;2.70;1.33;;;;;;;25.91;35.12;97898.41;5056168;28;20587;-27
2021/11/20 00:22:18;;;;;;;3.10;1.05;;;;;;;25.92;35.02;97894.88;5041996;28;20020;-31
2021/11/20 00:24:46;;;;;;;2.25;1.30;;;;;;;25.92;35.12;97899.25;5043832;28;20684;-30
2021/11/20 00:27:17;;;;;;;1.83;1.10;;;;;;;25.91;35.13;97894.91;5045574;28;20491;-29
2021/11/20 00:32:13;;;;;;;11.55;1.65;;;;;;;25.91;35.17;97894.91;5042954;28;20047;-31
2021/11/20 00:34:39;;;;;;;1.50;1.08;;;;;;;25.92;35.03;97901.88;5039922;28;20113;-29
2021/11/20 00:37:05;;;;;;;1.45;1.13;;;;;;;25.90;35.04;97896.69;5042291;28;20036;-28
2021/11/20 00:39:31;;;;;;;2.85;1.25;;;;;;;25.91;35.10;97902.78;5034732;28;20336;-28
2021/11/20 00:41:56;;;;;;;4.60;1.15;;;;;;;25.90;35.00;97901.94;5037856;28;20148;-29
2021/11/20 00:44:22;;;;;;;3.78;1.35;;;;;;;25.90;35.03;97906.34;5037773;28;20032;-29
2021/11/20 00:46:47;;;;;;;1.73;1.27;;;;;;;25.89;35.02;97908.09;5044960;28;20024;-32
2021/11/20 00:49:13;;;;;;;2.13;1.33;;;;;;;25.90;34.97;97894.06;5040907;28;20033;-30
2021/11/20 00:51:38;;;;;;;4.13;1.30;;;;;;;25.89;35.09;97900.22;5047440;28;20561;-28
2021/11/20 00:54:04;;;;;;;2.90;1.15;;;;;;;25.90;35.09;97899.31;5059141;28;20080;-33
2021/11/20 00:56:30;;;;;;;3.67;1.10;;;;;;;25.91;34.92;97897.53;5042766;28;20035;-26
2021/11/20 00:58:55;;;;;;;2.10;1.23;;;;;;;25.91;35.06;97903.66;5042972;28;20103;-30
2021/11/20 01:01:24;;;;;;;7.07;1.48;;;;;;;25.91;34.81;97902.78;5040064;28;20029;-32
2021/11/20 01:03:51;;;;;;;4.15;2.55;;;;;;;25.89;34.68;97908.09;5038452;28;20470;-29
2021/11/20 01:06:16;;;;;;;4.05;1.50;;;;;;;25.89;34.83;97896.75;5042904;28;20028;-29
2021/11/20 01:08:43;;;;;;;2.38;1.45;;;;;;;25.88;34.71;97900.28;5042541;28;20032;-33
2021/11/20 01:11:18;;;;;;;1.88;1.25;;;;;;;25.89;34.85;97894.13;5043113;28;20588;-28
2021/11/20 01:13:43;;;;;;;2.03;1.20;;;;;;;25.88;34.79;97897.66;5040393;28;20774;-29
2021/11/20 01:16:10;;;;;;;2.88;1.30;;;;;;;25.88;34.82;97892.41;5038654;28;20032;-29
2021/11/20 01:18:35;;;;;;;2.15;1.45;;;;;;;25.88;34.94;97888.00;5038531;28;20040;-31
2021/11/20 01:21:01;;;;;;;2.20;1.38;;;;;;;25.88;34.99;97881.88;5041517;28;20036;-27
2021/11/20 01:23:27;;;;;;;5.35;1.23;;;;;;;25.89;34.78;97888.88;5041174;28;20036;-29
2021/11/20 01:25:53;;;;;;;2.47;1.40;;;;;;;25.89;34.99;97883.63;5036994;28;20029;-29
2021/11/20 01:28:18;;;;;;;1.30;1.10;;;;;;;25.87;34.83;97872.31;5040220;28;20388;-29
2021/11/20 01:30:44;;;;;;;3.70;1.67;;;;;;;25.87;34.96;97870.56;5029873;28;20028;-27
2021/11/20 01:33:09;;;;;;;5.97;1.35;;;;;;;25.88;35.08;97868.75;5041295;28;20061;-32
2021/11/20 01:35:35;;;;;;;4.70;1.55;;;;;;;25.89;35.10;97871.34;5040508;28;20036;-30
2021/11/20 01:38:01;;;;;;;9.25;1.27;;;;;;;25.90;34.98;97864.31;5045892;28;20021;-27
2021/11/20 01:40:30;;;;;;;3.70;0.88;;;;;;;25.88;34.96;97861.75;5033586;28;20396;-29
2021/11/20 01:42:55;;;;;;;2.97;1.40;;;;;;;25.89;34.96;97860.00;5041636;28;20050;-29
2021/11/20 01:45:25;;;;;;;1.70;1.38;;;;;;;25.89;34.79;97857.38;5039819;28;20040;-31
2021/11/20 01:47:55;;;;;;;2.25;1.10;;;;;;;25.89;35.05;97849.50;5053453;28;20032;-31
2021/11/20 01:50:41;;;;;;;3.65;1.40;;;;;;;25.90;34.97;97851.19;5047668;28;20036;-28
2021/11/20 01:53:31;;;;;;;1.65;1.08;;;;;;;25.89;34.96;97849.50;5045523;28;20039;-29
2021/11/20 01:56:18;;;;;;;2.35;1.15;;;;;;;25.89;34.93;97846.88;5042773;28;20032;-31
2021/11/20 01:59:21;;;;;;;4.72;1.10;;;;;;;25.89;34.94;97841.63;5047935;28;20032;-32
2021/11/20 02:01:50;;;;;;;3.88;0.85;;;;;;;25.88;34.97;97837.25;5061230;28;20060;-31
2021/11/20 02:04:22;;;;;;;3.55;1.38;;;;;;;25.87;34.77;97832.91;5049664;28;20185;-27
2021/11/20 02:07:09;;;;;;;1.52;1.30;;;;;;;25.88;34.92;97839.88;5027913;28;20028;-29
2021/11/20 02:09:51;;;;;;;4.00;1.92;;;;;;;25.87;34.78;97832.91;5058518;28;22298;-32
2021/11/20 02:12:20;;;;;;;2.38;1.00;;;;;;;25.87;34.83;97830.28;5063968;28;20033;-29
2021/11/20 02:14:46;;;;;;;1.48;1.10;;;;;;;25.86;34.90;97825.97;5066803;28;20028;-30
2021/11/20 02:17:13;;;;;;;4.10;1.23;;;;;;;25.87;34.96;97815.41;5046143;28;21407;-27
2021/11/20 02:19:42;;;;;;;1.85;1.02;;;;;;;25.86;34.79;97811.06;5045235;28;20606;-29
2021/11/20 02:22:23;;;;;;;2.50;1.27;;;;;;;25.86;34.77;97808.44;5043504;28;20036;-29
2021/11/20 02:24:48;;;;;;;1.42;1.08;;;;;;;25.87;34.78;97809.28;5062296;28;20400;-28
2021/11/20 02:27:13;;;;;;;1.55;1.10;;;;;;;25.86;34.72;97807.59;5044511;28;20040;-31
2021/11/20 02:29:47;;;;;;;1.83;1.10;;;;;;;25.86;34.92;97797.06;5045767;28;20029;-31
2021/11/20 02:32:20;;;;;;;1.70;1.02;;;;;;;25.86;34.91;97794.44;5049150;28;20024;-29
2021/11/20 02:34:47;;;;;;;2.20;0.93;;;;;;;25.86;34.77;97797.06;5048933;28;20035;-29
2021/11/20 02:37:12;;;;;;;1.85;0.95;;;;;;;25.86;34.67;97789.19;5044661;28;20110;-31
2021/11/20 02:39:38;;;;;;;2.00;1.10;;;;;;;25.86;34.76;97791.81;5042919;28;20532;-29
2021/11/20 02:42:04;;;;;;;2.63;1.20;;;;;;;25.86;34.81;97789.19;5047162;28;20064;-32
2021/11/20 02:44:34;;;;;;;1.77;0.90;;;;;;;25.85;34.79;97788.34;5058698;28;20032;-27
2021/11/20 02:47:04;;;;;;;1.63;1.00;;;;;;;25.85;34.81;97771.75;5044734;28;20412;-29
2021/11/20 02:49:30;;;;;;;1.70;1.08;;;;;;;25.87;34.85;97785.66;5044174;28;20039;-29
2021/11/20 02:52:01;;;;;;;1.52;0.85;;;;;;;25.86;34.66;97781.31;5046321;28;20032;-28
2021/11/20 02:54:27;;;;;;;2.20;1.37;;;;;;;25.86;34.70;97773.44;5043987;28;20032;-31
2021/11/20 02:57:05;;;;;;;1.92;1.13;;;;;;;25.86;34.79;97770.81;5042660;28;20278;-29
2021/11/20 02:59:31;;;;;;;1.20;1.10;;;;;;;25.85;34.78;97762.06;5057502;28;20036;-27
2021/11/20 03:01:57;;;;;;;2.00;1.00;;;;;;;25.85;34.80;97759.44;5057973;28;20104;-29
2021/11/20 03:04:23;;;;;;;2.40;1.13;;;;;;;25.86;34.69;97762.94;5045187;28;20563;-26
2021/11/20 03:06:51;;;;;;;1.17;0.98;;;;;;;25.85;34.78;97750.72;5043903;28;20383;-30
2021/11/20 03:09:16;;;;;;;1.73;1.00;;;;;;;25.87;34.70;97743.63;5044325;28;20042;-28
2021/11/20 03:11:42;;;;;;;1.40;0.82;;;;;;;25.85;34.56;97740.22;5046974;28;20048;-27
2021/11/20 03:14:08;;;;;;;1.83;1.10;;;;;;;25.85;34.69;97741.06;5043546;28;20057;-28
2021/11/20 03:16:38;;;;;;;1.77;1.05;;;;;;;25.85;34.71;97735.81;5031549;28;20085;-28
2021/11/20 03:19:04;;;;;;;1.15;0.70;;;;;;;25.86;34.80;97736.69;5034411;28;20647;-31
2021/11/20 03:21:30;;;;;;;1.30;1.00;;;;;;;25.85;34.67;97740.22;5038690;28;20032;-30
2021/11/20 03:23:57;;;;;;;1.25;0.93;;;;;;;25.85;34.62;97729.72;5043474;28;20016;-29
2021/11/20 03:26:23;;;;;;;0.95;0.73;;;;;;;25.84;34.65;97728.84;5032329;28;20025;-30
2021/11/20 03:28:48;;;;;;;1.63;0.98;;;;;;;25.84;34.65;97734.13;5032211;28;20028;-28
2021/11/20 03:31:14;;;;;;;1.92;1.00;;;;;;;25.83;34.61;97730.63;5042142;28;20060;-32
2021/11/20 03:33:39;;;;;;;2.25;0.80;;;;;;;25.84;34.58;97734.13;5046261;28;20538;-29
2021/11/20 03:36:05;;;;;;;0.88;0.82;;;;;;;25.84;34.57;97731.47;5046621;28;20025;-28
2021/11/20 03:38:30;;;;;;;1.75;1.13;;;;;;;25.84;34.48;97728.84;5048507;28;20039;-29
2021/11/20 03:40:56;;;;;;;1.23;0.98;;;;;;;25.83;34.57;97722.75;5043883;28;20484;-31
2021/11/20 03:43:21;;;;;;;1.50;1.00;;;;;;;25.83;34.75;97717.50;5064176;28;20063;-28
2021/11/20 03:45:46;;;;;;;1.40;0.90;;;;;;;25.83;34.59;97717.50;5043928;28;20024;-30
2021/11/20 03:48:13;;;;;;;2.05;1.00;;;;;;;25.84;34.45;97720.97;5041578;28;20029;-28
2021/11/20 03:50:40;;;;;;;1.40;0.88;;;;;;;25.85;34.45;97724.47;5061039;28;20548;-33
2021/11/20 03:53:05;;;;;;;0.90;0.70;;;;;;;25.84;34.62;97728.84;5046189;28;20028;-27
2021/11/20 03:55:32;;;;;;;1.98;0.75;;;;;;;25.83;34.54;97721.91;5047600;28;20037;-29
2021/11/20 03:57:58;;;;;;;1.50;1.10;;;;;;;25.84;34.58;97728.84;5060316;28;20162;-29
2021/11/20 04:00:25;;;;;;;1.33;0.90;;;;;;;25.85;34.51;97724.47;5047365;28;20025;-28
2021/11/20 04:02:50;;;;;;;1.02;0.70;;;;;;;25.83;34.51;97719.28;5042902;28;20116;-31
2021/11/20 04:05:17;;;;;;;1.15;0.85;;;;;;;25.85;34.49;97719.22;5045754;28;20028;-28
2021/11/20 04:07:42;;;;;;;1.45;1.02;;;;;;;25.85;34.46;97721.84;5044280;28;20029;-33
2021/11/20 04:10:08;;;;;;;2.15;0.80;;;;;;;25.84;34.59;97723.59;5047505;28;20035;-32
2021/11/20 04:12:34;;;;;;;1.23;0.90;;;;;;;25.82;34.60;97723.66;5047062;28;20506;-33
2021/11/20 04:14:59;;;;;;;0.80;0.80;;;;;;;25.83;34.62;97717.50;5045083;28;20043;-27
2021/11/20 04:17:25;;;;;;;1.23;1.00;;;;;;;25.82;34.49;97721.03;5046933;28;20043;-35
2021/11/20 04:19:50;;;;;;;6.80;0.77;;;;;;;25.84;34.62;97713.09;5044554;28;20025;-31
2021/11/20 04:22:15;;;;;;;4.72;1.10;;;;;;;25.83;34.55;97717.50;5045466;28;20082;-29
2021/11/20 04:24:41;;;;;;;1.75;0.85;;;;;;;25.83;34.47;97712.25;5047381;28;20037;-29
2021/11/20 04:27:06;;;;;;;0.75;0.75;;;;;;;25.83;34.62;97716.66;5037113;28;21577;-33
2021/11/20 04:29:32;;;;;;;1.15;0.80;;;;;;;25.82;34.46;97705.28;5039868;28;20491;-32
2021/11/20 04:31:58;;;;;;;3.97;0.80;;;;;;;25.82;34.49;97709.69;5047395;28;20028;-28
2021/11/20 04:34:23;;;;;;;1.40;0.80;;;;;;;25.82;34.65;97705.28;5041267;28;20037;-32
2021/11/20 04:36:49;;;;;;;0.82;0.82;;;;;;;25.82;34.56;97697.41;5046889;28;20392;-33
2021/11/20 04:39:14;;;;;;;1.20;1.00;;;;;;;25.82;34.57;97700.03;5039349;28;20023;-32
2021/11/20 04:41:40;;;;;;;0.70;0.70;;;;;;;25.82;34.58;97699.19;5043064;28;20033;-30
2021/11/20 04:44:08;;;;;;;1.42;0.85;;;;;;;25.81;34.59;97695.69;5055977;28;20036;-30
2021/11/20 04:46:34;;;;;;;1.77;1.05;;;;;;;25.80;34.47;97699.25;5056446;28;20036;-28
2021/11/20 04:48:59;;;;;;;1.30;0.80;;;;;;;25.81;34.60;97682.56;5042971;28;20752;-32
2021/11/20 04:51:25;;;;;;;3.33;0.93;;;;;;;25.81;34.40;97682.56;5044668;28;20082;-29
2021/11/20 04:53:51;;;;;;;1.00;0.90;;;;;;;25.80;34.41;97675.63;5042171;28;20024;-28
2021/11/20 04:56:18;;;;;;;1.33;0.90;;;;;;;25.81;34.43;97677.31;5056353;28;20534;-29
2021/11/20 04:58:44;;;;;;;0.88;0.70;;;;;;;25.81;34.64;97665.94;5043155;28;20035;-28
2021/11/20 05:01:10;;;;;;;1.38;0.80;;;;;;;25.81;34.41;97677.31;5043924;28;20805;-29
2021/11/20 05:03:35;;;;;;;1.00;0.90;;;;;;;25.81;34.59;97673.84;5053886;28;20033;-30
2021/11/20 05:06:01;;;;;;;1.35;0.82;;;;;;;25.81;34.49;97672.06;5056253;28;20029;-28
2021/11/20 05:08:27;;;;;;;1.33;0.90;;;;;;;25.80;34.35;97675.63;5042899;28;20079;-29
2021/11/20 05:10:52;;;;;;;0.90;0.80;;;;;;;25.79;34.44;97673.91;5041938;28;20032;-29
2021/11/20 05:13:18;;;;;;;0.73;0.70;;;;;;;25.80;34.65;97678.25;5030572;28;20017;-28
2021/11/20 05:15:45;;;;;;;1.33;1.02;;;;;;;25.80;34.42;97675.63;5047091;28;20117;-31
2021/11/20 05:18:10;;;;;;;0.80;0.70;;;;;;;25.79;34.53;97673.91;5042400;28;20575;-29
2021/11/20 05:20:36;;;;;;;7.50;2.53;;;;;;;25.80;34.38;97670.38;5045343;28;20036;-26
2021/11/20 05:23:01;;;;;;;2.67;1.42;;;;;;;25.80;34.27;97664.25;5059967;28;20025;-31
2021/11/20 05:25:27;;;;;;;2.55;1.00;;;;;;;25.78;34.38;97656.44;5034582;28;20032;-28
2021/11/20 05:27:53;;;;;;;2.83;0.77;;;;;;;25.79;34.58;97665.16;5034941;28;20035;-32
2021/11/20 05:30:32;;;;;;;1.60;0.80;;;;;;;25.78;34.52;97656.44;5044110;28;20035;-29
2021/11/20 05:32:58;;;;;;;1.55;0.80;;;;;;;25.77;34.39;97649.47;5043644;28;20028;-30
2021/11/20 05:35:24;;;;;;;0.80;0.80;;;;;;;25.78;34.40;97651.19;5047481;28;20024;-29
2021/11/20 05:37:50;;;;;;;1.23;0.90;;;;;;;25.77;34.64;97649.47;5045707;28;20028;-32
2021/11/20 05:40:15;;;;;;;1.17;0.73;;;;;;;25.78;34.51;97642.47;5060174;28;20805;-31
2021/11/20 05:42:42;;;;;;;0.70;0.70;;;;;;;25.78;34.40;97645.09;5044298;28;20039;-31
2021/11/20 05:45:08;;;;;;;1.90;0.90;;;;;;;25.77;34.49;97635.47;5045252;28;20503;-31
2021/11/20 05:47:36;;;;;;;0.70;0.63;;;;;;;25.76;34.62;97642.53;5061623;28;20107;-29
2021/11/20 05:50:03;;;;;;;0.70;0.63;;;;;;;25.78;34.48;97645.94;5055268;28;20033;-33
2021/11/20 05:52:28;;;;;;;1.23;0.90;;;;;;;25.77;34.65;97644.22;5044079;28;20096;-29
2021/11/20 05:54:54;;;;;;;0.98;0.73;;;;;;;25.78;34.49;97634.59;5039764;28;20850;-29
2021/11/20 05:57:20;;;;;;;1.23;0.60;;;;;;;25.78;34.64;97638.06;5035347;28;20036;-31
2021/11/20 05:59:45;;;;;;;1.70;0.90;;;;;;;25.77;34.60;97633.72;5034646;28;20249;-29
2021/11/20 06:02:11;;;;;;;0.98;0.70;;;;;;;25.77;34.44;97636.34;5022253;28;20032;-31
2021/11/20 06:04:36;;;;;;;2.42;0.70;;;;;;;25.78;34.56;97639.84;5040337;28;20035;-30
2021/11/20 06:07:03;;;;;;;0.70;0.70;;;;;;;25.78;34.59;97630.19;5042490;28;20385;-29
2021/11/20 06:09:28;;;;;;;0.82;0.80;;;;;;;25.78;34.49;97624.94;5047151;28;20496;-28
2021/11/20 06:11:54;;;;;;;1.58;0.80;;;;;;;25.77;34.60;97620.59;5044360;28;20029;-27
2021/11/20 06:14:19;;;;;;;0.70;0.70;;;;;;;25.78;34.46;97618.84;5045188;28;20045;-30
2021/11/20 06:16:45;;;;;;;1.13;0.80;;;;;;;25.77;34.44;97623.22;5046405;28;20036;-29
2021/11/20 06:19:11;;;;;;;0.75;0.60;;;;;;;25.77;34.55;97617.97;5043087;28;20504;-32
2021/11/20 06:21:36;;;;;;;0.60;0.60;;;;;;;25.78;34.51;97630.19;5055414;28;20590;-28
2021/11/20 06:24:02;;;;;;;0.40;0.40;;;;;;;25.78;34.43;97626.72;5046688;28;20039;-29
2021/11/20 06:26:27;;;;;;;3.50;0.70;;;;;;;25.78;34.40;97626.72;5043623;28;20028;-30
2021/11/20 06:28:53;;;;;;;0.60;0.60;;;;;;;25.77;34.57;97623.22;5034696;28;20040;-30
2021/11/20 06:31:19;;;;;;;1.60;0.70;;;;;;;25.77;34.49;97617.97;5010466;28;20073;-27
2021/11/20 06:33:45;;;;;;;0.63;0.57;;;;;;;25.77;34.56;97617.97;5057692;28;20029;-30
2021/11/20 06:36:10;;;;;;;0.82;0.82;;;;;;;25.76;34.60;97611.03;5048351;28;20631;-32
2021/11/20 06:38:39;;;;;;;1.10;0.75;;;;;;;25.76;34.52;97616.28;5042779;28;20020;-28
2021/11/20 06:41:05;;;;;;;0.82;0.65;;;;;;;25.77;34.41;97617.09;5042619;28;20033;-31
2021/11/20 06:43:30;;;;;;;0.60;0.60;;;;;;;25.77;34.43;97622.34;5045495;28;20051;-32
2021/11/20 06:45:58;;;;;;;1.52;0.60;;;;;;;25.78;34.35;97624.09;5045390;28;20039;-29
2021/11/20 06:48:23;;;;;;;0.50;0.50;;;;;;;25.77;34.48;97628.47;5042190;28;20166;-30
2021/11/20 06:50:49;;;;;;;0.88;0.70;;;;;;;25.78;34.46;97629.34;5042500;28;20036;-29
2021/11/20 06:53:15;;;;;;;0.60;0.60;;;;;;;25.78;34.46;97632.81;5042423;28;20029;-27
2021/11/20 06:55:41;;;;;;;0.63;0.63;;;;;;;25.77;34.34;97623.22;5040042;28;21833;-28
2021/11/20 06:58:20;;;;;;;1.05;0.80;;;;;;;25.77;34.45;97627.59;5044186;28;20021;-28
2021/11/20 07:00:51;;;;;;;0.70;0.70;;;;;;;25.78;34.38;97629.34;5042716;28;20028;-29
2021/11/20 07:03:16;;;;;;;7.32;2.15;;;;;;;25.77;34.27;97628.47;5041709;28;20111;-28
2021/11/20 07:06:12;;;;;;;4.53;1.50;;;;;;;25.76;34.46;97625.91;5043722;28;20121;-32
2021/11/20 07:08:41;;;;;;;3.35;1.48;;;;;;;25.76;34.50;97642.53;5034659;28;20107;-31
2021/11/20 07:11:07;;;;;;;1.73;1.48;;;;;;;25.75;34.34;97634.72;5059988;28;20033;-29
2021/11/20 07:13:32;;;;;;;3.38;1.70;;;;;;;25.73;34.30;97626.88;5042520;28;20032;-30
2021/11/20 07:15:58;;;;;;;2.90;1.48;;;;;;;25.73;34.46;97621.63;5044755;28;20063;-32
2021/11/20 07:18:24;;;;;;;2.60;1.70;;;;;;;25.73;34.37;97621.63;5041548;28;20043;-30
2021/11/20 07:20:50;;;;;;;2.05;1.40;;;;;;;25.73;34.38;97626.88;5042037;28;20059;-31
2021/11/20 07:23:16;;;;;;;1.65;1.30;;;;;;;25.73;34.17;97623.44;5052612;28;20520;-33
2021/11/20 07:25:41;;;;;;;1.40;1.30;;;;;;;25.73;34.26;97621.63;5039224;28;20783;-33
2021/11/20 07:28:07;;;;;;;1.70;1.38;;;;;;;25.73;34.37;97618.16;5036158;28;20028;-29
2021/11/20 07:30:33;;;;;;;3.10;1.02;;;;;;;25.72;34.31;97616.44;5040581;28;20119;-34
2021/11/20 07:32:59;;;;;;;6.13;1.02;;;;;;;25.72;34.36;97619.06;5030777;28;20111;-32
2021/11/20 07:35:30;;;;;;;4.63;1.27;;;;;;;25.72;34.43;97619.06;5043090;28;20430;-30
2021/11/20 07:37:56;;;;;;;12.00;1.48;;;;;;;25.73;34.52;97618.16;5041492;28;20570;-34
2021/11/20 07:40:23;;;;;;;7.15;1.90;;;;;;;25.72;34.58;97611.19;5043691;28;20029;-30
2021/11/20 07:42:48;;;;;;;17.67;3.10;;;;;;;25.72;34.67;97608.56;5036078;28;20849;-29
2021/11/20 07:45:14;;;;;;;16.55;2.75;;;;;;;25.71;34.60;97610.34;5050322;28;20826;-30
2021/11/20 07:47:39;;;;;;;20.45;3.25;;;;;;;25.70;34.68;97612.13;5042869;28;20036;-29
2021/11/20 07:50:05;;;;;;;14.45;3.00;;;;;;;25.70;34.65;97617.38;5043500;28;20013;-31
2021/11/20 07:52:30;;;;;;;8.63;2.88;;;;;;;25.71;34.63;97615.59;5033266;28;20032;-33
2021/11/20 07:54:56;;;;;;;12.73;2.70;;;;;;;25.70;34.69;97609.50;5058405;28;20035;-30
2021/11/20 07:57:21;;;;;;;4.80;2.30;;;;;;;25.72;34.55;97604.19;5036642;28;20114;-32
2021/11/20 07:59:47;;;;;;;42.28;3.38;;;;;;;25.72;34.81;97601.56;5044063;28;20036;-32
2021/11/20 08:02:12;;;;;;;24.23;3.00;;;;;;;25.72;34.70;97604.19;5042414;28;20339;-32
2021/11/20 08:04:38;;;;;;;32.72;3.05;;;;;;;25.72;34.77;97598.94;5043129;28;20028;-33
2021/11/20 08:07:04;;;;;;;18.42;3.10;;;;;;;25.73;34.84;97599.78;5043123;28;20433;-30
2021/11/20 08:09:30;;;;;;;14.35;3.30;;;;;;;25.72;34.60;97598.94;5041422;28;20043;-31
2021/11/20 08:11:55;;;;;;;15.93;3.90;;;;;;;25.72;34.43;97588.44;5041554;28;20020;-31
2021/11/20 08:14:21;;;;;;;20.45;5.72;;;;;;;25.73;34.06;97589.28;5043112;28;20040;-33
2021/11/20 08:16:47;;;;;;;11.43;4.28;;;;;;;25.70;33.26;97585.00;5041171;28;20028;-31
2021/11/20 08:19:14;;;;;;;14.27;3.10;;;;;;;25.69;33.55;97583.28;5041411;28;20033;-32
2021/11/20 08:21:40;;;;;;;8.55;3.30;;;;;;;25.69;33.73;97583.28;5039642;28;20444;-33
2021/11/20 08:24:06;;;;;;;26.67;5.63;;;;;;;25.69;33.18;97583.28;5046147;28;20032;-31
2021/11/20 08:26:37;;;;;;;10.27;5.30;;;;;;;25.63;32.37;97573.88;5046691;28;20040;-31
2021/11/20 08:29:07;;;;;;;22.88;4.90;;;;;;;25.61;31.72;97569.63;5046534;28;20025;-31
2021/11/20 08:31:34;;;;;;;12.73;4.85;;;;;;;25.57;31.72;97564.50;5051008;28;20032;-29
2021/11/20 08:34:00;;;;;;;9.25;5.07;;;;;;;25.54;31.44;97554.09;5050628;28;20028;-29
2021/11/20 08:36:25;;;;;;;8.95;4.88;;;;;;;25.51;31.68;97563.88;5044732;28;20032;-36
2021/11/20 08:38:50;;;;;;;10.50;4.25;;;;;;;25.47;31.50;97563.13;5042576;28;20029;-29
2021/11/20 08:41:16;;;;;;;14.48;4.35;;;;;;;25.45;31.49;97559.72;5044413;28;20051;-32
2021/11/20 08:43:41;;;;;;;9.43;4.18;;;;;;;25.44;31.66;97568.50;5042458;28;20025;-30
2021/11/20 08:46:07;;;;;;;9.63;4.30;;;;;;;25.41;31.67;97566.00;5042556;28;20093;-33
2021/11/20 08:48:33;;;;;;;12.88;4.50;;;;;;;25.39;31.71;97563.44;5042820;28;20078;-34
2021/11/20 08:51:02;;;;;;;9.40;4.13;;;;;;;25.38;31.60;97563.47;5041458;28;20029;-31
2021/11/20 08:53:28;;;;;;;8.70;4.53;;;;;;;25.35;31.23;97558.38;5039601;28;20075;-31
2021/11/20 08:55:53;;;;;;;13.30;4.70;;;;;;;25.31;31.21;97553.25;5042964;28;20488;-30
2021/11/20 08:58:19;;;;;;;12.38;4.88;;;;;;;25.29;31.25;97544.56;5028659;28;20029;-30
2021/11/20 09:00:53;;;;;;;8.55;4.38;;;;;;;25.26;31.17;97547.31;5042791;28;20024;-30
2021/11/20 09:03:42;;;;;;;15.98;4.30;;;;;;;25.23;31.17;97547.44;5041763;28;20025;-31
2021/11/20 09:06:19;;;;;;;10.02;3.15;;;;;;;25.23;32.03;97547.44;5040832;28;20035;-30
2021/11/20 09:09:00;;;;;;;14.32;2.80;;;;;;;25.24;32.62;97546.50;5044202;28;20021;-29
2021/11/20 09:11:31;;;;;;;24.17;2.65;;;;;;;25.26;33.16;97555.19;5044022;28;20040;-31
2021/11/20 09:14:13;;;;;;;15.43;2.53;;;;;;;25.28;33.35;97553.34;5044484;28;20052;-32
2021/11/20 09:16:40;;;;;;;9.30;2.47;;;;;;;25.31;33.51;97547.13;5041100;28;20040;-34
2021/11/20 09:19:06;;;;;;;10.02;1.92;;;;;;;25.31;33.67;97550.63;5040836;28;20035;-31
2021/11/20 09:21:32;;;;;;;8.13;2.65;;;;;;;25.34;33.81;97544.41;5042790;28;20039;-30
2021/11/20 09:23:57;;;;;;;9.23;2.40;;;;;;;25.36;33.81;97545.16;5043007;28;20029;-31
2021/11/20 09:26:23;;;;;;;7.28;1.90;;;;;;;25.38;33.72;97539.88;5040251;28;20025;-33
2021/11/20 09:28:48;;;;;;;7.03;2.00;;;;;;;25.41;33.81;97542.38;5041306;28;20016;-30
2021/11/20 09:31:14;;;;;;;7.50;1.80;;;;;;;25.43;33.92;97541.41;5042563;28;20051;-30
2021/11/20 09:33:39;;;;;;;7.82;2.00;;;;;;;25.44;33.94;97535.22;5042840;28;20025;-33
2021/11/20 09:36:05;;;;;;;5.13;1.90;;;;;;;25.47;33.83;97533.41;5039683;28;20073;-28
2021/11/20 09:38:30;;;;;;;3.03;1.45;;;;;;;25.47;33.82;97526.38;5043235;28;20036;-29
2021/11/20 09:41:19;;;;;;;6.65;1.98;;;;;;;25.50;33.82;97525.41;5040697;28;20494;-29
2021/11/20 09:43:52;;;;;;;10.20;2.00;;;;;;;25.50;33.76;97523.63;5042563;28;20052;-29
2021/11/20 09:46:19;;;;;;;9.48;1.90;;;;;;;25.51;33.75;97533.22;5038025;28;20077;-29
2021/11/20 09:48:52;;;;;;;7.03;1.60;;;;;;;25.53;33.88;97528.78;5041349;28;20055;-30
2021/11/20 09:51:23;;;;;;;9.35;1.80;;;;;;;25.53;33.80;97515.66;5042567;28;20070;-31
2021/11/20 09:53:48;;;;;;;7.18;1.60;;;;;;;25.55;33.99;97521.69;5040941;28;20021;-33
2021/11/20 09:56:21;;;;;;;6.55;1.90;;;;;;;25.51;32.44;97516.63;5042707;28;20040;-30
2021/11/20 09:58:50;;;;;;;1.67;1.45;;;;;;;25.42;28.18;97509.97;5047941;28;20617;-32
2021/11/20 10:01:41;;;;;;;1.60;1.50;;;;;;;25.16;26.69;97514.47;5042535;28;20059;-29
2021/11/20 10:04:18;;;;;;;2.53;1.90;;;;;;;24.87;26.54;97501.56;5042844;28;20028;-29
2021/11/20 10:06:46;;;;;;;4.28;1.73;;;;;;;24.58;26.44;97500.88;5046381;28;20142;-28
2021/11/20 10:09:14;;;;;;;5.43;1.45;;;;;;;24.37;27.44;97497.28;5044136;28;20032;-29
2021/11/20 10:11:45;;;;;;;5.65;1.77;;;;;;;24.22;28.40;97503.94;5046904;28;20039;-31
2021/11/20 10:14:16;;;;;;;3.75;1.30;;;;;;;24.14;29.09;97504.19;5044584;28;20056;-32
2021/11/20 10:16:54;;;;;;;5.93;1.17;;;;;;;24.10;29.80;97495.56;5044604;28;20177;-34
2021/11/20 10:19:24;;;;;;;7.55;1.50;;;;;;;24.11;29.86;97491.22;5043552;28;20032;-31
2021/11/20 10:21:58;;;;;;;4.55;1.10;;;;;;;24.12;30.45;97482.44;5045415;28;20079;-32
2021/11/20 10:24:48;;;;;;;4.28;0.90;;;;;;;24.14;30.47;97485.88;5048305;28;20272;-29
2021/11/20 10:27:39;;;;;;;4.32;0.93;;;;;;;24.19;30.74;97477.84;5050121;28;20032;-33
2021/11/20 10:30:25;;;;;;;10.23;1.00;;;;;;;24.25;30.80;97475.00;5060762;28;20028;-29
2021/11/20 10:33:09;;;;;;;16.83;1.55;;;;;;;24.30;30.99;97472.22;5059428;28;20056;-30
2021/11/20 10:35:40;;;;;;;6.07;1.00;;;;;;;24.34;30.99;97471.19;5053909;28;20483;-30
2021/11/20 10:38:08;;;;;;;8.65;1.90;;;;;;;24.38;31.12;97467.56;5048232;28;20165;-32
2021/11/20 10:40:39;;;;;;;16.13;2.30;;;;;;;24.43;31.06;97470.84;5057706;28;20556;-33
2021/11/20 10:43:27;;;;;;;9.88;1.38;;;;;;;24.47;31.35;97467.22;5048525;28;20040;-31
2021/11/20 10:46:17;;;;;;;9.88;1.65;;;;;;;24.52;31.66;97469.69;5049688;28;20288;-30
2021/11/20 10:48:47;;;;;;;8.40;1.85;;;;;;;24.58;31.78;97466.81;5048377;28;20028;-29
2021/11/20 10:51:22;;;;;;;13.57;1.70;;;;;;;24.62;31.85;97467.53;5065681;28;20125;-31
2021/11/20 10:54:25;;;;;;;9.27;1.67;;;;;;;24.67;32.11;97466.47;5051132;28;20079;-32
2021/11/20 10:57:19;;;;;;;11.82;1.80;;;;;;;24.71;32.09;97446.22;5048631;28;20028;-33
2021/11/20 11:00:06;;;;;;;7.20;1.85;;;;;;;24.78;32.13;97447.72;5061397;28;20025;-33
2021/11/20 11:03:02;;;;;;;11.05;1.80;;;;;;;24.82;32.21;97444.97;5046343;28;20032;-31
2021/11/20 11:05:42;;;;;;;8.68;1.65;;;;;;;24.84;32.31;97437.94;5058697;28;20020;-32
2021/11/20 11:08:32;;;;;;;8.45;1.85;;;;;;;24.87;32.40;97437.81;5049467;28;20126;-31
2021/11/20 11:11:22;;;;;;;10.45;1.67;;;;;;;24.90;32.14;97429.84;5049136;28;20028;-31
2021/11/20 11:14:13;;;;;;;12.20;2.15;;;;;;;24.92;32.17;97422.75;5060921;28;20021;-30
2021/11/20 11:16:38;;;;;;;7.97;1.23;;;;;;;24.94;32.24;97422.69;5048397;28;20895;-32
2021/11/20 11:19:37;;;;;;;179.38;23.02;;;;;;;24.94;30.25;97420.09;5043755;28;20040;-30
2021/11/20 11:22:07;;;;;;;24.65;5.25;;;;;;;24.92;32.20;97415.75;5046385;28;20027;-29
2021/11/20 11:24:58;;;;;;;25.20;4.25;;;;;;;24.91;32.78;97407.94;5062023;28;20038;-30
2021/11/20 11:27:38;;;;;;;16.30;3.60;;;;;;;24.94;32.97;97402.56;5044551;28;20025;-27
2021/11/20 11:30:11;;;;;;;17.52;3.53;;;;;;;24.99;33.20;97403.25;5044027;28;20505;-29
2021/11/20 11:32:43;;;;;;;15.50;3.90;;;;;;;25.08;33.14;97394.16;5047540;28;20100;-29
2021/11/20 11:35:26;;;;;;;25.38;2.90;;;;;;;25.20;32.50;97398.03;5041526;28;20117;-29
2021/11/20 11:38:21;;;;;;;39.78;4.50;;;;;;;25.35;32.68;97385.22;5043980;28;20038;-28
2021/11/20 11:41:07;;;;;;;20.00;4.13;;;;;;;25.49;32.22;97376.75;5025733;28;20542;-29
2021/11/20 11:44:05;;;;;;;15.18;4.20;;;;;;;25.66;32.13;97373.44;5045073;28;20025;-31
2021/11/20 11:46:54;;;;;;;18.00;4.40;;;;;;;25.81;31.85;97372.75;5041883;28;20897;-29